Time;durP1;ratioP1;P1;durP2;ratioP2;P2;SDS_P1;SDS_P2;PMS_P1;PMS_P2;Temp;Humidity;BMP_temperature;BMP_pressure;BME280_temperature;BME280_humidity;BME280_pressure;Samples;Min_cycle;Max_cycle;Signal;HPM_P1;HPM_P2
2022/01/08 00:00:36;;;;;;;35.92;17.10;;;1.30;99.90;;;;;;5072995;28;20373;-71
2022/01/08 00:03:01;;;;;;;34.55;16.42;;;1.30;99.90;;;;;;5072384;28;20025;-71
2022/01/08 00:05:27;;;;;;;30.33;15.52;;;1.40;99.90;;;;;;5073901;28;20024;-71
2022/01/08 00:07:54;;;;;;;31.60;15.52;;;1.30;99.90;;;;;;5072325;28;20479;-72
2022/01/08 00:10:19;;;;;;;30.50;15.65;;;1.30;99.90;;;;;;5074148;28;20016;-72
2022/01/08 00:12:45;;;;;;;31.80;15.38;;;1.30;99.90;;;;;;5072627;28;20081;-72
2022/01/08 00:15:11;;;;;;;41.75;17.88;;;1.30;99.90;;;;;;5074092;28;20032;-72
2022/01/08 00:17:37;;;;;;;33.22;16.35;;;1.30;99.90;;;;;;5072147;28;20021;-71
2022/01/08 00:20:04;;;;;;;30.30;14.65;;;1.30;99.90;;;;;;5073626;28;20555;-72
2022/01/08 00:22:30;;;;;;;28.27;15.57;;;1.30;99.90;;;;;;5072174;28;20020;-71
2022/01/08 00:24:55;;;;;;;30.23;14.90;;;1.20;99.90;;;;;;5055479;28;20071;-71
2022/01/08 00:27:22;;;;;;;38.17;17.05;;;1.20;99.90;;;;;;5073933;28;20465;-71
2022/01/08 00:29:49;;;;;;;34.63;17.48;;;1.20;99.90;;;;;;5073901;28;20020;-72
2022/01/08 00:32:15;;;;;;;34.20;17.30;;;1.20;99.90;;;;;;5055353;28;20029;-72
2022/01/08 00:34:41;;;;;;;30.55;15.57;;;1.20;99.90;;;;;;5072416;28;20081;-71
2022/01/08 00:37:07;;;;;;;35.38;16.02;;;1.20;99.90;;;;;;5072714;28;20083;-71
2022/01/08 00:39:33;;;;;;;28.23;15.27;;;1.10;99.90;;;;;;5072658;28;20483;-71
2022/01/08 00:41:59;;;;;;;28.70;16.00;;;1.10;99.90;;;;;;5073455;28;20377;-71
2022/01/08 00:44:25;;;;;;;27.92;14.77;;;1.10;99.90;;;;;;5072348;28;20021;-71
2022/01/08 00:46:50;;;;;;;28.00;15.18;;;1.10;99.90;;;;;;5073768;28;20016;-71
2022/01/08 00:49:16;;;;;;;33.85;15.05;;;1.00;99.90;;;;;;5072293;28;20028;-71
2022/01/08 00:51:41;;;;;;;28.70;14.82;;;1.00;99.90;;;;;;5073709;28;20033;-71
2022/01/08 00:54:07;;;;;;;31.67;15.35;;;0.90;99.90;;;;;;5072708;28;20025;-71
2022/01/08 00:56:32;;;;;;;30.63;15.38;;;0.90;99.90;;;;;;5072504;28;20024;-70
2022/01/08 00:58:58;;;;;;;31.80;15.73;;;0.90;99.90;;;;;;5071842;28;20492;-71
2022/01/08 01:01:24;;;;;;;28.92;14.82;;;;;;;;;;5073544;28;20028;-71
2022/01/08 01:03:50;;;;;;;23.40;14.35;;;0.80;99.90;;;;;;5073372;28;20086;-71
2022/01/08 01:06:15;;;;;;;27.85;15.20;;;0.80;99.90;;;;;;5071844;28;20111;-71
2022/01/08 01:08:41;;;;;;;26.48;14.55;;;0.80;99.90;;;;;;5073544;28;20024;-72
2022/01/08 01:11:06;;;;;;;30.35;15.30;;;0.70;99.90;;;;;;5073518;28;20031;-72
2022/01/08 01:13:32;;;;;;;30.75;15.93;;;0.70;99.90;;;;;;5072229;28;20460;-72
2022/01/08 01:15:57;;;;;;;29.55;16.10;;;0.60;99.90;;;;;;5072040;28;20050;-71
2022/01/08 01:18:23;;;;;;;37.17;16.73;;;0.60;99.90;;;;;;5072311;28;20074;-71
2022/01/08 01:20:50;;;;;;;25.67;15.00;;;0.60;99.90;;;;;;5071387;28;20044;-72
2022/01/08 01:23:21;;;;;;;28.55;14.98;;;0.60;99.90;;;;;;5073416;28;20066;-72
2022/01/08 01:25:52;;;;;;;30.00;15.27;;;0.60;99.90;;;;;;5072835;28;20017;-71
2022/01/08 01:28:44;;;;;;;30.70;16.40;;;0.60;99.90;;;;;;5074619;28;20023;-70
2022/01/08 01:47:32;;;;;;;38.22;17.67;;;0.20;99.90;;;;;;5110212;28;20056;-71
2022/01/08 01:49:58;;;;;;;39.85;17.35;;;0.10;99.90;;;;;;5111937;28;20040;-71
2022/01/08 01:52:24;;;;;;;31.80;16.15;;;0.10;99.90;;;;;;5110442;28;20077;-71
2022/01/08 01:54:50;;;;;;;35.30;17.02;;;0.00;99.90;;;;;;5093035;28;20020;-70
2022/01/08 01:57:17;;;;;;;33.13;16.77;;;0.00;99.90;;;;;;5111769;28;20039;-71
2022/01/08 01:59:43;;;;;;;40.95;17.98;;;0.10;99.90;;;;;;5110205;28;20038;-70
2022/01/08 02:02:09;;;;;;;40.08;18.00;;;0.10;99.90;;;;;;5110063;28;20028;-70
2022/01/08 02:04:34;;;;;;;32.85;17.65;;;0.20;99.90;;;;;;5109779;28;20069;-70
2022/01/08 02:07:00;;;;;;;47.50;19.80;;;0.20;99.90;;;;;;5110606;28;20383;-70
2022/01/08 02:09:26;;;;;;;38.45;19.02;;;0.10;99.90;;;;;;5109722;28;20027;-70
2022/01/08 02:11:57;;;;;;;40.17;18.08;;;0.00;99.90;;;;;;5093157;28;20023;-70
2022/01/08 02:14:23;;;;;;;33.30;17.45;;;0.00;99.90;;;;;;5110490;28;20076;-70
2022/01/08 02:16:48;;;;;;;35.72;17.63;;;0.00;99.90;;;;;;5111107;28;20028;-70
2022/01/08 02:19:14;;;;;;;40.08;19.45;;;-0.10;99.90;;;;;;5076342;28;20035;-70
2022/01/08 02:21:47;;;;;;;33.67;17.50;;;-0.10;99.90;;;;;;5109076;28;20040;-71
2022/01/08 02:24:12;;;;;;;;;;;-0.20;99.90;;;;;;5076336;28;20077;-70
2022/01/08 02:26:38;;;;;;;34.80;18.27;;;-0.20;99.90;;;;;;5109361;28;20331;-70
2022/01/08 02:29:03;;;;;;;35.85;19.20;;;-0.20;99.90;;;;;;5092772;28;20023;-71
2022/01/08 02:31:29;;;;;;;44.95;19.50;;;-0.20;99.90;;;;;;5110531;28;20026;-71
2022/01/08 02:33:56;;;;;;;39.05;18.80;;;-0.20;99.90;;;;;;5092301;28;20028;-71
2022/01/08 02:36:21;;;;;;;42.47;18.83;;;-0.20;99.90;;;;;;5111054;28;20027;-71
2022/01/08 02:38:48;;;;;;;34.72;18.23;;;-0.20;99.90;;;;;;5092585;28;20028;-71
2022/01/08 02:41:14;;;;;;;47.17;20.80;;;-0.20;99.90;;;;;;5109167;28;20032;-70
2022/01/08 02:43:45;;;;;;;54.80;21.30;;;-0.20;99.90;;;;;;5109105;28;20040;-71
2022/01/08 02:46:10;;;;;;;49.55;21.67;;;-0.20;99.90;;;;;;5109167;28;20027;-70
2022/01/08 02:48:36;;;;;;;36.47;18.40;;;-0.20;99.90;;;;;;5109328;28;20016;-71
2022/01/08 02:51:02;;;;;;;41.15;19.90;;;-0.30;99.90;;;;;;5110521;28;20388;-71
2022/01/08 02:53:28;;;;;;;39.83;19.60;;;-0.30;99.90;;;;;;5110429;28;20028;-71
2022/01/08 02:55:53;;;;;;;42.38;19.50;;;-0.40;99.90;;;;;;5097016;28;20103;-70
2022/01/08 02:58:19;;;;;;;45.15;19.65;;;-0.40;99.90;;;;;;5095568;28;20028;-70
2022/01/08 03:00:44;;;;;;;43.63;19.13;;;-0.30;99.90;;;;;;5096744;28;20385;-70
2022/01/08 03:03:12;;;;;;;40.45;18.98;;;-0.40;99.90;;;;;;5095025;28;20024;-70
2022/01/08 03:05:38;;;;;;;43.20;19.70;;;-0.40;99.90;;;;;;5078207;28;20040;-70
2022/01/08 03:08:04;;;;;;;42.50;20.60;;;-0.40;99.90;;;;;;5096619;28;20030;-70
2022/01/08 03:10:29;;;;;;;45.95;21.25;;;-0.40;99.90;;;;;;5096796;28;20350;-71
2022/01/08 03:12:55;;;;;;;39.38;19.52;;;-0.40;99.90;;;;;;5096752;28;20042;-71
2022/01/08 03:15:21;;;;;;;41.67;20.75;;;-0.50;99.90;;;;;;5077981;28;20024;-70
2022/01/08 03:17:48;;;;;;;41.90;20.80;;;-0.40;99.90;;;;;;5078473;28;20020;-70
2022/01/08 03:20:14;;;;;;;37.58;19.30;;;-0.40;99.90;;;;;;5078003;28;20059;-71
2022/01/08 03:22:44;;;;;;;39.70;19.40;;;-0.40;99.90;;;;;;5094690;28;20393;-70
2022/01/08 03:25:10;;;;;;;48.83;21.25;;;-0.50;99.90;;;;;;5095084;28;20099;-70
2022/01/08 03:27:36;;;;;;;42.17;20.65;;;-0.50;99.90;;;;;;5077887;28;20042;-70
2022/01/08 03:30:05;;;;;;;51.28;21.55;;;-0.70;99.90;;;;;;5096126;28;20020;-70
2022/01/08 03:32:30;;;;;;;45.22;20.75;;;-0.70;99.90;;;;;;5096104;28;20024;-70
2022/01/08 03:34:56;;;;;;;43.42;20.75;;;-0.80;99.90;;;;;;5096317;28;20080;-70
2022/01/08 03:37:21;;;;;;;43.35;20.70;;;-0.80;99.90;;;;;;5077701;28;20030;-71
2022/01/08 03:39:47;;;;;;;41.92;19.25;;;;;;;;;;5094387;28;20028;-71
2022/01/08 03:42:13;;;;;;;42.08;21.55;;;-0.90;99.90;;;;;;5094604;28;20460;-72
2022/01/08 03:44:38;;;;;;;41.33;19.70;;;-1.00;99.90;;;;;;5095884;28;20027;-71
2022/01/08 03:47:24;;;;;;;51.58;22.85;;;-1.00;99.90;;;;;;5094273;28;20549;-72
2022/01/08 03:49:49;;;;;;;49.15;22.63;;;-1.00;99.90;;;;;;5094820;28;20020;-72
2022/01/08 03:52:15;;;;;;;53.13;22.73;;;-1.00;99.90;;;;;;5077833;28;20473;-71
2022/01/08 03:54:40;;;;;;;51.22;25.23;;;-0.90;99.90;;;;;;5095685;28;20027;-70
2022/01/08 03:57:06;;;;;;;56.55;25.90;;;-0.90;99.90;;;;;;5094471;28;20020;-70
2022/01/08 03:59:32;;;;;;;55.72;24.60;;;-0.90;99.90;;;;;;5095932;28;20043;-70
2022/01/08 04:01:57;;;;;;;52.22;24.85;;;-0.90;99.90;;;;;;5095829;28;20111;-70
2022/01/08 04:04:23;;;;;;;50.40;24.00;;;-0.90;99.90;;;;;;5077109;28;20031;-71
2022/01/08 04:06:49;;;;;;;56.67;26.58;;;-0.90;99.90;;;;;;5095193;28;20024;-72
2022/01/08 04:09:15;;;;;;;73.43;29.98;;;-0.80;99.90;;;;;;5095177;28;20024;-70
2022/01/08 04:11:40;;;;;;;62.45;27.70;;;-0.70;99.90;;;;;;5094183;28;20392;-71
2022/01/08 04:14:06;;;;;;;61.83;27.20;;;-0.70;99.90;;;;;;5094146;28;20099;-71
2022/01/08 04:16:34;;;;;;;55.17;26.02;;;-0.70;99.90;;;;;;5095558;28;20534;-70
2022/01/08 04:19:00;;;;;;;67.82;31.35;;;-0.80;99.90;;;;;;5094181;28;20388;-70
2022/01/08 04:24:07;;;;;;;81.47;34.83;;;-0.80;99.90;;;;;;5092002;27;19912;-71
2022/01/08 04:26:33;;;;;;;87.00;34.55;;;-0.70;99.90;;;;;;5073227;28;20028;-71
2022/01/08 04:28:59;;;;;;;93.75;38.63;;;-0.60;99.90;;;;;;5089737;28;20029;-71
2022/01/08 04:31:25;;;;;;;104.32;40.25;;;-0.40;99.90;;;;;;5091524;28;20035;-71
2022/01/08 04:33:51;;;;;;;101.25;39.90;;;-0.30;99.90;;;;;;5091215;28;20032;-71
2022/01/08 04:36:17;;;;;;;100.90;41.30;;;-0.20;99.90;;;;;;5089970;28;20059;-72
2022/01/08 04:38:42;;;;;;;109.35;43.60;;;-0.10;99.90;;;;;;5089655;28;20481;-71
2022/01/08 04:41:08;;;;;;;109.75;43.40;;;0.10;99.90;;;;;;5091330;28;20107;-71
2022/01/08 04:43:37;;;;;;;114.50;44.58;;;0.20;99.90;;;;;;5091205;28;20395;-71
2022/01/08 04:46:03;;;;;;;114.30;44.63;;;0.20;99.90;;;;;;5073059;28;20107;-72
2022/01/08 04:48:33;;;;;;;115.75;46.08;;;0.30;99.90;;;;;;5072535;28;20035;-72
2022/01/08 04:50:59;;;;;;;110.90;45.33;;;0.30;99.90;;;;;;5089932;28;20416;-71
2022/01/08 04:53:24;;;;;;;120.10;49.38;;;0.40;99.90;;;;;;5089296;28;20032;-72
2022/01/08 04:55:50;;;;;;;129.02;50.78;;;0.50;99.90;;;;;;5090774;28;20029;-72
2022/01/08 04:58:15;;;;;;;124.00;50.38;;;0.70;99.90;;;;;;5089563;28;20025;-71
2022/01/08 05:00:41;;;;;;;125.60;49.05;;;0.70;99.90;;;;;;5090966;28;20462;-71
2022/01/08 05:03:06;;;;;;;120.88;48.78;;;0.70;99.90;;;;;;5090839;28;20035;-71
2022/01/08 05:05:32;;;;;;;120.70;47.40;;;0.60;99.90;;;;;;5072183;28;20036;-72
2022/01/08 05:07:58;;;;;;;122.57;48.53;;;0.50;99.90;;;;;;5088977;28;20027;-72
2022/01/08 05:10:23;;;;;;;128.23;49.42;;;0.50;99.90;;;;;;5073039;28;20024;-72
2022/01/08 05:12:49;;;;;;;126.15;48.75;;;0.60;99.90;;;;;;5090412;28;20529;-72
2022/01/08 05:15:16;;;;;;;126.60;50.25;;;0.60;99.90;;;;;;5090708;28;20024;-71
2022/01/08 05:17:43;;;;;;;137.15;49.33;;;0.60;99.90;;;;;;5090642;28;20107;-71
2022/01/08 05:20:12;;;;;;;124.38;47.50;;;0.60;99.90;;;;;;5090306;28;20507;-71
2022/01/08 05:22:50;;;;;;;121.97;46.05;;;0.60;99.90;;;;;;5088922;28;20046;-71
2022/01/08 05:25:17;;;;;;;121.72;46.42;;;0.50;99.90;;;;;;5090492;28;20096;-71
2022/01/08 05:27:44;;;;;;;124.05;48.03;;;0.50;99.90;;;;;;5089016;28;20017;-71
2022/01/08 05:30:11;;;;;;;136.18;49.03;;;0.50;99.90;;;;;;5088885;28;20432;-71
2022/01/08 05:32:37;;;;;;;129.30;49.70;;;0.50;99.90;;;;;;5090310;28;20020;-71
2022/01/08 05:35:03;;;;;;;127.63;47.40;;;0.50;99.90;;;;;;5077803;28;20369;-71
2022/01/08 05:37:28;;;;;;;123.88;49.88;;;0.50;99.90;;;;;;5075773;28;20035;-71
2022/01/08 05:39:55;;;;;;;119.80;46.70;;;0.40;99.90;;;;;;5091908;28;20036;-71
2022/01/08 05:42:20;;;;;;;123.85;47.53;;;0.30;99.90;;;;;;5075064;28;20035;-71
2022/01/08 05:44:46;;;;;;;131.63;45.80;;;0.30;99.90;;;;;;5076591;28;20063;-71
2022/01/08 05:47:11;;;;;;;124.43;46.38;;;0.20;99.90;;;;;;5058176;28;20470;-72
2022/01/08 05:49:37;;;;;;;121.40;45.58;;;0.10;99.90;;;;;;5076551;28;20102;-73
2022/01/08 05:52:03;;;;;;;132.50;46.25;;;0.10;99.90;;;;;;5076537;28;20410;-72
2022/01/08 05:54:29;;;;;;;119.95;46.00;;;0.00;99.90;;;;;;5076197;28;20436;-70
2022/01/08 05:56:55;;;;;;;117.15;45.83;;;-0.10;99.90;;;;;;5075276;28;20064;-72
2022/01/08 05:59:22;;;;;;;122.88;48.83;;;-0.10;99.90;;;;;;5076401;28;20039;-71
2022/01/08 06:01:48;;;;;;;126.72;44.90;;;0.00;99.90;;;;;;5075960;28;20027;-71
2022/01/08 06:04:14;;;;;;;118.95;47.42;;;-0.10;99.90;;;;;;5057803;28;20103;-71
2022/01/08 06:06:40;;;;;;;123.65;49.03;;;0.00;99.90;;;;;;5074408;28;20107;-71
2022/01/08 06:09:06;;;;;;;101.00;43.38;;;0.00;99.90;;;;;;5076205;28;20055;-71
2022/01/08 06:11:31;;;;;;;114.07;45.88;;;0.00;99.90;;;;;;5074890;28;20469;-70
2022/01/08 06:13:57;;;;;;;115.40;46.47;;;0.00;99.90;;;;;;5076109;28;20036;-72
2022/01/08 06:16:23;;;;;;;115.93;45.42;;;0.10;99.90;;;;;;5075770;28;20432;-71
2022/01/08 06:18:48;;;;;;;117.07;47.60;;;0.10;99.90;;;;;;5057529;28;20032;-71
2022/01/08 06:21:14;;;;;;;132.90;50.70;;;0.30;99.90;;;;;;5075973;28;20025;-71
2022/01/08 06:23:39;;;;;;;129.55;49.38;;;0.60;99.90;;;;;;5092423;28;20044;-72
2022/01/08 06:26:06;;;;;;;120.22;49.03;;;0.60;99.90;;;;;;5077731;28;20374;-71
2022/01/08 06:28:32;;;;;;;121.72;50.30;;;0.60;99.90;;;;;;5077978;28;20104;-71
2022/01/08 06:30:58;;;;;;;130.20;50.78;;;0.70;99.90;;;;;;5077329;28;20387;-72
2022/01/08 06:33:23;;;;;;;127.78;51.15;;;0.70;99.90;;;;;;5060659;28;20016;-71
2022/01/08 06:35:51;;;;;;;134.27;52.10;;;0.70;99.90;;;;;;5095635;28;20032;-71
2022/01/08 06:38:18;;;;;;;129.15;51.35;;;0.80;99.90;;;;;;5061724;28;20024;-72
2022/01/08 06:40:44;;;;;;;133.10;51.28;;;0.80;99.90;;;;;;5077465;28;20107;-71
2022/01/08 06:43:10;;;;;;;121.78;50.03;;;0.80;99.90;;;;;;5060413;28;20021;-71
2022/01/08 06:45:35;;;;;;;142.73;51.95;;;0.80;99.90;;;;;;5094726;28;20046;-72
2022/01/08 06:48:01;;;;;;;134.35;51.47;;;0.90;99.90;;;;;;5060406;28;20085;-72
2022/01/08 06:50:28;;;;;;;122.88;50.75;;;0.80;99.90;;;;;;5095021;28;20107;-71
2022/01/08 06:52:54;;;;;;;119.60;51.40;;;0.90;99.90;;;;;;5095049;28;20051;-71
2022/01/08 06:55:20;;;;;;;134.68;53.15;;;0.90;99.90;;;;;;5077177;28;20028;-72
2022/01/08 06:57:45;;;;;;;132.23;53.25;;;0.90;99.90;;;;;;5076870;28;20057;-72
2022/01/08 07:00:11;;;;;;;146.70;54.17;;;1.00;99.90;;;;;;5076758;28;20092;-71
2022/01/08 07:02:36;;;;;;;130.55;52.05;;;0.90;99.90;;;;;;5076632;28;20024;-71
2022/01/08 07:05:02;;;;;;;138.05;54.90;;;0.90;99.90;;;;;;5095331;28;20071;-71
2022/01/08 07:07:28;;;;;;;137.00;54.53;;;0.90;99.90;;;;;;5076582;28;20020;-71
2022/01/08 07:09:53;;;;;;;140.75;54.80;;;0.90;99.90;;;;;;5095227;28;20024;-71
2022/01/08 07:12:18;;;;;;;139.40;54.85;;;0.90;99.90;;;;;;5076597;28;20028;-71
2022/01/08 07:14:44;;;;;;;134.63;53.90;;;0.80;99.90;;;;;;5077140;28;20062;-71
2022/01/08 07:17:09;;;;;;;136.80;54.70;;;0.80;99.90;;;;;;5076408;28;20451;-71
2022/01/08 07:19:35;;;;;;;140.07;54.53;;;0.70;99.90;;;;;;5059777;28;20471;-70
2022/01/08 07:22:01;;;;;;;135.57;54.33;;;0.70;99.90;;;;;;5094698;28;20501;-71
2022/01/08 07:24:26;;;;;;;140.38;56.45;;;0.70;99.90;;;;;;5094980;28;20024;-71
2022/01/08 07:26:52;;;;;;;134.50;55.70;;;0.70;99.90;;;;;;5076633;28;20346;-71
2022/01/08 07:29:17;;;;;;;141.32;56.95;;;0.70;99.90;;;;;;5059599;28;20103;-71
2022/01/08 07:31:43;;;;;;;146.75;58.53;;;0.70;99.90;;;;;;5076178;28;20056;-71
2022/01/08 07:34:08;;;;;;;145.43;56.65;;;0.70;99.90;;;;;;5076540;28;20052;-71
2022/01/08 07:36:34;;;;;;;136.05;55.78;;;0.70;99.90;;;;;;5059442;28;20020;-71
2022/01/08 07:38:59;;;;;;;140.88;58.35;;;0.70;99.90;;;;;;5076817;28;20467;-71
2022/01/08 07:41:25;;;;;;;133.85;56.60;;;0.70;99.90;;;;;;5094452;28;20063;-70
2022/01/08 07:43:51;;;;;;;143.98;58.08;;;0.70;99.90;;;;;;5094124;28;20058;-72
2022/01/08 07:46:16;;;;;;;152.38;57.95;;;0.70;99.90;;;;;;5076630;28;20526;-72
2022/01/08 07:48:43;;;;;;;141.25;58.42;;;0.60;99.90;;;;;;5094533;28;20031;-71
2022/01/08 07:51:09;;;;;;;141.82;57.88;;;0.70;99.90;;;;;;5060253;28;20028;-71
2022/01/08 07:53:34;;;;;;;152.93;62.40;;;0.70;99.90;;;;;;5094249;28;20032;-71
2022/01/08 07:56:00;;;;;;;152.35;60.63;;;0.70;99.90;;;;;;5075807;28;20024;-71
2022/01/08 07:58:25;;;;;;;159.57;59.15;;;0.80;99.90;;;;;;5075557;28;20489;-71
2022/01/08 08:00:51;;;;;;;151.80;58.90;;;0.80;99.90;;;;;;5059023;28;20126;-70
2022/01/08 08:03:18;;;;;;;149.52;57.22;;;0.80;99.90;;;;;;5076441;28;20024;-71
2022/01/08 08:05:45;;;;;;;141.23;58.08;;;0.90;99.90;;;;;;5059463;28;20024;-71
2022/01/08 08:08:15;;;;;;;145.23;58.65;;;0.90;99.90;;;;;;5093708;28;20020;-71
2022/01/08 08:10:41;;;;;;;141.50;58.00;;;1.00;99.90;;;;;;5093120;28;20035;-71
2022/01/08 08:13:06;;;;;;;137.80;57.35;;;1.10;99.90;;;;;;5075734;28;20025;-71
2022/01/08 08:15:32;;;;;;;144.98;56.45;;;1.20;99.90;;;;;;5076257;28;20052;-71
2022/01/08 08:17:57;;;;;;;122.55;53.25;;;1.60;99.90;;;;;;5058778;28;20032;-71
2022/01/08 08:20:23;;;;;;;125.25;52.67;;;1.60;99.90;;;;;;5075908;28;20035;-71
2022/01/08 08:22:48;;;;;;;126.63;53.67;;;1.80;99.90;;;;;;5075283;28;20078;-72
2022/01/08 08:25:14;;;;;;;111.35;48.95;;;1.90;99.90;;;;;;5058792;28;20081;-71
2022/01/08 08:27:40;;;;;;;105.75;45.75;;;2.00;99.90;;;;;;5075399;28;20031;-72
2022/01/08 08:30:07;;;;;;;85.22;40.58;;;1.90;99.90;;;;;;5076085;28;20110;-72
2022/01/08 08:32:32;;;;;;;83.97;41.45;;;1.70;99.90;;;;;;5094045;28;20500;-72
2022/01/08 08:34:58;;;;;;;82.60;40.50;;;1.70;99.90;;;;;;5075441;28;20032;-72
2022/01/08 08:37:24;;;;;;;86.15;40.78;;;1.60;99.90;;;;;;5094026;28;20124;-73
2022/01/08 08:39:49;;;;;;;94.43;41.13;;;1.60;99.90;;;;;;5075708;28;20028;-72
2022/01/08 08:42:15;;;;;;;89.50;41.90;;;1.50;99.90;;;;;;5059135;28;20032;-72
2022/01/08 08:44:41;;;;;;;94.97;43.92;;;1.60;99.90;;;;;;5093900;28;20021;-72
2022/01/08 08:47:07;;;;;;;96.10;44.78;;;1.60;99.90;;;;;;5058657;28;20496;-72
2022/01/08 08:49:32;;;;;;;90.47;42.10;;;1.70;99.90;;;;;;5076372;28;20027;-73
2022/01/08 08:51:58;;;;;;;92.38;42.05;;;1.90;99.90;;;;;;5093843;28;20029;-72
2022/01/08 08:54:24;;;;;;;85.35;39.92;;;2.00;99.90;;;;;;5059090;28;20031;-72
2022/01/08 08:56:49;;;;;;;88.20;41.10;;;2.20;99.90;;;;;;5093806;28;20111;-72
2022/01/08 08:59:15;;;;;;;83.45;40.40;;;2.40;99.90;;;;;;5058469;28;20122;-72
2022/01/08 09:01:41;;;;;;;76.95;36.85;;;2.80;99.90;;;;;;5075480;28;20021;-72
2022/01/08 09:04:07;;;;;;;63.22;32.78;;;3.00;99.90;;;;;;5093371;28;20069;-72
2022/01/08 09:06:33;;;;;;;64.90;31.58;;;3.30;99.90;;;;;;5093677;28;20021;-72
2022/01/08 09:08:59;;;;;;;60.25;32.50;;;3.30;99.90;;;;;;5076097;28;20491;-72
2022/01/08 09:11:26;;;;;;;61.38;32.78;;;3.40;99.90;;;;;;5097547;28;20380;-72
2022/01/08 09:13:51;;;;;;;69.15;33.72;;;3.30;99.90;;;;;;5078776;28;20493;-72
2022/01/08 09:16:17;;;;;;;73.63;36.25;;;3.10;99.90;;;;;;5097446;28;20028;-72
2022/01/08 09:18:44;;;;;;;73.28;36.58;;;2.70;99.90;;;;;;5078694;28;20020;-71
2022/01/08 09:21:10;;;;;;;85.78;38.33;;;2.60;99.90;;;;;;5095803;28;20020;-72
2022/01/08 09:23:37;;;;;;;75.22;38.45;;;2.80;99.90;;;;;;5075111;28;20048;-73
2022/01/08 09:26:03;;;;;;;73.20;34.45;;;3.30;99.90;;;;;;5076632;28;20016;-72
2022/01/08 09:28:30;;;;;;;67.03;32.17;;;3.60;99.90;;;;;;5075245;28;20099;-72
2022/01/08 09:30:56;;;;;;;65.75;31.92;;;3.70;99.90;;;;;;5075491;28;20553;-72
2022/01/08 09:33:22;;;;;;;60.70;29.67;;;3.90;99.90;;;;;;5075718;28;20068;-72
2022/01/08 09:35:48;;;;;;;51.25;27.95;;;4.20;99.90;;;;;;5076538;28;20115;-73
2022/01/08 09:38:13;;;;;;;53.33;29.77;;;4.40;99.90;;;;;;5059081;28;20016;-73
2022/01/08 09:40:39;;;;;;;55.45;28.38;;;4.10;99.90;;;;;;5075018;28;20063;-72
2022/01/08 09:43:04;;;;;;;58.45;30.17;;;3.90;99.90;;;;;;5076620;28;20343;-73
2022/01/08 09:45:30;;;;;;;65.63;30.58;;;3.70;99.90;;;;;;5075198;28;20025;-73
2022/01/08 09:47:56;;;;;;;66.10;31.23;;;3.40;99.90;;;;;;5092104;28;20077;-72
2022/01/08 09:50:22;;;;;;;62.47;30.98;;;3.20;99.90;;;;;;5074891;28;20033;-72
2022/01/08 09:52:47;;;;;;;69.53;33.08;;;3.10;99.90;;;;;;5058021;28;20536;-72
2022/01/08 09:55:13;;;;;;;68.25;31.80;;;3.10;99.90;;;;;;5074679;28;20021;-72
2022/01/08 09:57:39;;;;;;;73.82;32.47;;;2.90;99.90;;;;;;5074575;28;20090;-72
2022/01/08 10:00:20;;;;;;;69.72;33.60;;;2.80;99.90;;;;;;5074567;28;20046;-72
2022/01/08 10:02:45;;;;;;;68.30;32.92;;;2.80;99.90;;;;;;5075940;28;20032;-72
2022/01/08 10:05:15;;;;;;;63.92;32.53;;;2.70;99.90;;;;;;5074901;28;20059;-73
2022/01/08 10:07:40;;;;;;;74.13;32.05;;;2.70;99.90;;;;;;5074842;28;20362;-72
2022/01/08 10:10:12;;;;;;;70.75;33.38;;;2.70;99.90;;;;;;5074736;28;20112;-72
2022/01/08 10:12:48;;;;;;;67.88;32.83;;;2.80;99.90;;;;;;5074944;28;20082;-66
2022/01/08 10:18:02;;;;;;;64.47;30.90;;;2.80;99.90;;;;;;5074685;28;20032;-66
2022/01/08 10:20:30;;;;;;;66.05;29.58;;;2.80;99.90;;;;;;5075301;28;20428;-67
2022/01/08 10:23:14;;;;;;;59.13;27.65;;;2.90;99.90;;;;;;5086176;28;20131;-67
2022/01/08 10:25:42;;;;;;;55.65;27.15;;;2.80;99.90;;;;;;5077913;28;20051;-67
2022/01/08 10:28:08;;;;;;;54.42;25.75;;;2.80;99.90;;;;;;5077447;28;20049;-66
2022/01/08 10:30:33;;;;;;;53.58;25.50;;;2.80;99.90;;;;;;5096083;28;20024;-66
2022/01/08 10:33:01;;;;;;;59.38;25.02;;;2.80;99.90;;;;;;5077648;28;20031;-66
2022/01/08 10:35:48;;;;;;;57.67;24.40;;;2.80;99.90;;;;;;5095921;28;20024;-65
2022/01/08 10:38:13;;;;;;;57.83;23.33;;;2.90;99.90;;;;;;5077230;28;20024;-66
2022/01/08 10:40:39;;;;;;;55.42;22.20;;;2.90;99.90;;;;;;5077127;28;20035;-67
2022/01/08 10:43:27;;;;;;;53.97;24.67;;;2.90;99.90;;;;;;5095193;28;20020;-67
2022/01/08 10:45:54;;;;;;;54.78;23.13;;;3.00;99.90;;;;;;5078582;28;20024;-66
2022/01/08 10:48:26;;;;;;;58.88;25.45;;;3.10;99.90;;;;;;5060318;28;20465;-66
2022/01/08 10:50:52;;;;;;;59.97;23.63;;;3.00;99.90;;;;;;5060584;28;20392;-66
2022/01/08 10:53:17;;;;;;;49.20;22.20;;;3.00;99.90;;;;;;5076932;28;20020;-66
2022/01/08 10:55:43;;;;;;;61.75;25.00;;;3.10;99.90;;;;;;5077521;28;20476;-66
2022/01/08 10:58:08;;;;;;;54.17;22.35;;;3.20;99.90;;;;;;5060243;28;20023;-66
2022/01/08 11:00:34;;;;;;;50.92;22.90;;;3.30;99.90;;;;;;5061285;28;20056;-66
2022/01/08 11:02:59;;;;;;;50.97;21.75;;;3.40;99.90;;;;;;5093875;28;20111;-66
2022/01/08 11:05:26;;;;;;;54.90;23.20;;;3.40;99.90;;;;;;5076678;28;20028;-66
2022/01/08 11:07:52;;;;;;;43.90;21.42;;;3.40;99.90;;;;;;5060193;28;20028;-66
2022/01/08 11:10:20;;;;;;;47.45;21.27;;;3.40;99.90;;;;;;5076966;28;20094;-66
2022/01/08 11:12:47;;;;;;;50.75;23.33;;;3.40;99.90;;;;;;5095223;28;20051;-66
2022/01/08 11:17:46;;;;;;;51.10;22.75;;;3.30;99.90;;;;;;5076957;28;20472;-66
2022/01/08 11:20:18;;;;;;;50.83;23.23;;;3.30;99.90;;;;;;5060040;28;20488;-65
2022/01/08 11:22:46;;;;;;;47.38;21.65;;;3.30;99.90;;;;;;5072998;28;20444;-65
2022/01/08 11:25:17;;;;;;;50.00;20.50;;;3.40;99.90;;;;;;5074774;28;20027;-66
2022/01/08 11:27:51;;;;;;;48.83;22.27;;;3.40;99.90;;;;;;5073119;28;20027;-66
2022/01/08 11:30:20;;;;;;;45.92;21.55;;;3.50;99.90;;;;;;5074359;28;20024;-66
2022/01/08 11:32:48;;;;;;;42.45;19.38;;;3.60;99.90;;;;;;5073819;28;20104;-66
2022/01/08 11:35:16;;;;;;;49.40;20.88;;;3.60;99.90;;;;;;5073356;28;20021;-66
2022/01/08 11:37:46;;;;;;;51.50;22.85;;;3.70;99.90;;;;;;5072812;28;20020;-66
2022/01/08 11:40:13;;;;;;;44.72;21.05;;;3.80;99.90;;;;;;5074232;28;20374;-66
2022/01/08 11:42:40;;;;;;;44.25;20.58;;;3.80;99.90;;;;;;5089738;28;20132;-64
2022/01/08 11:45:08;;;;;;;46.03;21.23;;;3.90;99.90;;;;;;5072706;28;20378;-66
2022/01/08 11:47:34;;;;;;;42.90;19.08;;;3.90;99.90;;;;;;5072800;28;20024;-66
2022/01/08 11:50:02;;;;;;;44.30;18.38;;;3.90;99.90;;;;;;5072565;28;20036;-66
2022/01/08 11:52:28;;;;;;;42.60;19.20;;;3.80;99.90;;;;;;5073292;28;20059;-66
2022/01/08 11:54:54;;;;;;;39.00;18.23;;;3.80;99.90;;;;;;5072434;28;20385;-66
2022/01/08 11:57:24;;;;;;;39.03;17.42;;;3.80;99.90;;;;;;5072503;28;20118;-65
2022/01/08 11:59:57;;;;;;;37.05;17.65;;;3.80;99.90;;;;;;5074211;28;20031;-65
2022/01/08 12:02:36;;;;;;;39.03;17.17;;;3.90;99.90;;;;;;5073847;28;20060;-66
2022/01/08 12:05:01;;;;;;;41.33;17.20;;;4.00;99.90;;;;;;5072718;28;20035;-66
2022/01/08 12:07:34;;;;;;;31.27;16.17;;;4.10;99.90;;;;;;5072972;28;20368;-66
2022/01/08 12:10:28;;;;;;;38.35;17.33;;;4.10;99.90;;;;;;5074039;28;20017;-66
2022/01/08 12:15:46;;;;;;;44.83;17.98;;;4.20;99.90;;;;;;5071642;28;20771;-66
2022/01/08 12:18:14;;;;;;;39.00;16.90;;;4.10;99.90;;;;;;5071080;28;20021;-66
2022/01/08 12:20:50;;;;;;;35.00;16.60;;;4.10;99.90;;;;;;5069567;28;20484;-65
2022/01/08 12:23:39;;;;;;;34.25;15.07;;;4.20;99.90;;;;;;5071263;28;20108;-65
2022/01/08 12:26:27;;;;;;;32.22;14.43;;;4.20;99.90;;;;;;5071229;28;20486;-66
2022/01/08 12:28:58;;;;;;;24.20;13.88;;;4.20;99.90;;;;;;5070573;28;20462;-66
2022/01/08 12:31:29;;;;;;;27.65;13.15;;;4.30;99.90;;;;;;5069706;28;20017;-66
2022/01/08 12:34:34;;;;;;;29.48;12.52;;;4.40;99.90;;;;;;5070719;28;20104;-65
2022/01/08 12:37:11;;;;;;;25.98;13.18;;;4.40;99.90;;;;;;5070678;28;20416;-66
2022/01/08 12:39:47;;;;;;;22.67;11.05;;;4.40;99.90;;;;;;5069194;28;20050;-66
2022/01/08 12:45:29;;;;;;;23.95;11.10;;;4.40;99.90;;;;;;5071707;28;20737;-66
2022/01/08 12:48:10;;;;;;;;;;;4.40;99.90;;;;;;5071755;28;20090;-66
2022/01/08 12:50:38;;;;;;;19.73;9.77;;;4.40;99.90;;;;;;5071307;28;19991;-65
2022/01/08 12:58:46;;;;;;;24.80;9.27;;;4.40;99.90;;;;;;5112666;27;20639;-66
2022/01/08 13:01:17;;;;;;;17.50;7.95;;;4.30;99.90;;;;;;5110528;28;20024;-66
2022/01/08 13:03:58;;;;;;;16.98;7.40;;;4.30;99.90;;;;;;5111620;28;20020;-66
2022/01/08 13:06:30;;;;;;;13.32;7.20;;;4.20;99.90;;;;;;5110601;28;20056;-66
2022/01/08 13:08:57;;;;;;;13.65;6.68;;;4.20;99.90;;;;;;5111546;28;20024;-65